Time;durP1;ratioP1;P1;durP2;ratioP2;P2;SDS_P1;SDS_P2;PMS_P1;PMS_P2;Temp;Humidity;BMP_temperature;BMP_pressure;BME280_temperature;BME280_humidity;BME280_pressure;Samples;Min_cycle;Max_cycle;Signal;HPM_P1;HPM_P2
2023/06/24 00:04:03;;;;;;;4.28;2.85;;;;;;;;;;10202174;29;20035;-88
2023/06/24 00:09:04;;;;;;;3.63;3.33;;;;;;;;;;10188582;29;20036;-89
2023/06/24 00:14:06;;;;;;;3.47;3.10;;;;;;;;;;10208811;29;20031;-87
2023/06/24 00:19:08;;;;;;;4.72;3.10;;;;;;;;;;10208598;29;20036;-90
2023/06/24 00:24:09;;;;;;;3.60;3.15;;;;;;;;;;10191590;29;20034;-89
2023/06/24 00:29:10;;;;;;;4.20;3.75;;;;;;;;;;10191322;29;20052;-87
2023/06/24 00:34:11;;;;;;;5.60;3.65;;;;;;;;;;10191218;29;20051;-88
2023/06/24 00:39:12;;;;;;;4.47;3.80;;;;;;;;;;10191787;29;20042;-88
2023/06/24 00:44:13;;;;;;;5.80;3.60;;;;;;;;;;10178656;29;20036;-88
2023/06/24 00:49:15;;;;;;;4.25;3.83;;;;;;;;;;10190659;29;20046;-87
2023/06/24 00:54:20;;;;;;;3.95;3.40;;;;;;;;;;10190211;29;20031;-87
2023/06/24 00:59:21;;;;;;;5.50;3.58;;;;;;;;;;10190372;29;20290;-89
2023/06/24 01:04:24;;;;;;;5.47;3.25;;;;;;;;;;10189027;29;20697;-87
2023/06/24 01:09:26;;;;;;;4.05;3.60;;;;;;;;;;10179666;29;20469;-90
2023/06/24 01:14:27;;;;;;;4.28;3.10;;;;;;;;;;10202331;29;20062;-89
2023/06/24 01:19:42;;;;;;;4.78;3.83;;;;;;;;;;10188721;29;20039;-87
2023/06/24 01:24:51;;;;;;;4.63;3.55;;;;;;;;;;10206618;29;20368;-87
2023/06/24 01:30:11;;;;;;;4.95;3.88;;;;;;;;;;10189122;29;20059;-87
2023/06/24 01:35:15;;;;;;;4.22;3.83;;;;;;;;;;10168520;29;20028;-89
2023/06/24 01:40:40;;;;;;;4.93;3.40;;;;;;;;;;10187401;29;20039;-87
2023/06/24 01:45:42;;;;;;;5.38;3.70;;;;;;;;;;10188360;29;20028;-88
2023/06/24 01:50:47;;;;;;;7.40;3.78;;;;;;;;;;10188448;29;20040;-87
2023/06/24 01:55:49;;;;;;;5.43;3.75;;;;;;;;;;10175058;29;20047;-88
2023/06/24 02:00:51;;;;;;;4.72;3.92;;;;;;;;;;10187817;29;20488;-91
2023/06/24 02:05:52;;;;;;;5.88;3.90;;;;;;;;;;10205067;29;20036;-88
2023/06/24 02:10:54;;;;;;;6.78;4.25;;;;;;;;;;10187195;29;20040;-90
2023/06/24 02:15:56;;;;;;;4.93;3.85;;;;;;;;;;10204273;29;20059;-89
2023/06/24 02:20:57;;;;;;;5.78;4.60;;;;;;;;;;10204089;29;20046;-88
2023/06/24 02:26:00;;;;;;;5.53;4.25;;;;;;;;;;10204610;29;20537;-89
2023/06/24 02:31:01;;;;;;;5.20;4.13;;;;;;;;;;10191112;29;20061;-87
2023/06/24 02:36:02;;;;;;;5.88;4.30;;;;;;;;;;10204001;29;20079;-88
2023/06/24 02:41:04;;;;;;;5.35;4.22;;;;;;;;;;10202184;29;20043;-88
2023/06/24 02:46:06;;;;;;;5.43;4.40;;;;;;;;;;10201890;29;20031;-90
2023/06/24 02:51:09;;;;;;;7.25;4.60;;;;;;;;;;10204043;29;20028;-88
2023/06/24 02:56:10;;;;;;;6.60;5.38;;;;;;;;;;10202013;29;20373;-90
2023/06/24 03:01:12;;;;;;;6.82;4.95;;;;;;;;;;10203290;29;20059;-90
2023/06/24 03:06:17;;;;;;;13.02;6.43;;;;;;;;;;10189951;29;20040;-88
2023/06/24 03:11:18;;;;;;;7.38;5.75;;;;;;;;;;10202846;29;20067;-87
2023/06/24 03:16:19;;;;;;;9.70;6.25;;;;;;;;;;10201789;29;20558;-87
2023/06/24 03:21:20;;;;;;;12.30;7.45;;;;;;;;;;10202561;29;20364;-87
2023/06/24 03:26:21;;;;;;;10.88;9.02;;;;;;;;;;10200891;29;20036;-90
2023/06/24 03:31:23;;;;;;;13.65;9.98;;;;;;;;;;10202965;29;20109;-89
2023/06/24 03:36:24;;;;;;;13.07;9.48;;;;;;;;;;10175027;29;20123;-89
2023/06/24 03:41:26;;;;;;;21.13;14.05;;;;;;;;;;10193316;29;20038;-87
2023/06/24 03:46:32;;;;;;;30.30;18.90;;;;;;;;;;10192992;29;20099;-87
2023/06/24 03:51:33;;;;;;;27.52;19.00;;;;;;;;;;10193407;29;20115;-88
2023/06/24 03:56:34;;;;;;;31.58;20.50;;;;;;;;;;10192434;29;20498;-90
2023/06/24 04:01:36;;;;;;;33.20;21.95;;;;;;;;;;10193303;29;20038;-88
2023/06/24 04:06:37;;;;;;;43.97;24.50;;;;;;;;;;10210106;29;20024;-88
2023/06/24 04:11:38;;;;;;;39.65;24.42;;;;;;;;;;10192170;29;20047;-90
2023/06/24 04:16:40;;;;;;;38.33;22.80;;;;;;;;;;10196666;29;20098;-92
2023/06/24 04:21:41;;;;;;;35.90;22.83;;;;;;;;;;10209590;29;20028;-88
2023/06/24 04:26:42;;;;;;;35.63;20.60;;;;;;;;;;10192508;29;20028;-90
2023/06/24 04:31:43;;;;;;;36.58;22.30;;;;;;;;;;10208860;29;20590;-90
2023/06/24 04:36:44;;;;;;;35.78;20.92;;;;;;;;;;10190715;29;20047;-89
2023/06/24 04:41:46;;;;;;;36.85;21.42;;;;;;;;;;10189803;29;20035;-89
2023/06/24 04:46:47;;;;;;;34.90;21.50;;;;;;;;;;10207815;29;20024;-87
2023/06/24 04:51:48;;;;;;;38.97;22.95;;;;;;;;;;10190810;29;20063;-89
2023/06/24 04:56:50;;;;;;;36.53;23.17;;;;;;;;;;10189510;29;20499;-87
2023/06/24 05:01:51;;;;;;;40.63;23.48;;;;;;;;;;10181201;29;20040;-89
2023/06/24 05:06:52;;;;;;;39.53;24.42;;;;;;;;;;10196867;29;20036;-88
2023/06/24 05:11:53;;;;;;;39.45;22.45;;;;;;;;;;10190089;29;20035;-88
2023/06/24 05:16:54;;;;;;;32.50;19.85;;;;;;;;;;10199135;29;20051;-88
2023/06/24 05:21:55;;;;;;;28.17;17.92;;;;;;;;;;10189357;29;20054;-91
2023/06/24 05:26:56;;;;;;;23.83;16.10;;;;;;;;;;10206740;29;20046;-89
2023/06/24 05:31:58;;;;;;;24.00;14.43;;;;;;;;;;10200720;29;20418;-90
2023/06/24 05:36:59;;;;;;;19.65;14.25;;;;;;;;;;10205795;29;20050;-93
2023/06/24 05:42:00;;;;;;;17.75;12.25;;;;;;;;;;10205863;29;20034;-89
2023/06/24 05:47:01;;;;;;;16.80;12.57;;;;;;;;;;10206416;29;20063;-92
2023/06/24 05:52:02;;;;;;;16.45;11.43;;;;;;;;;;10204957;29;20039;-89
2023/06/24 05:57:07;;;;;;;15.20;11.18;;;;;;;;;;10186711;29;20036;-89
2023/06/24 06:02:08;;;;;;;13.13;9.35;;;;;;;;;;10166580;29;20032;-89
2023/06/24 06:07:09;;;;;;;16.63;9.90;;;;;;;;;;10200975;29;20578;-90
2023/06/24 06:12:10;;;;;;;11.10;8.60;;;;;;;;;;10204606;29;20047;-88
2023/06/24 06:17:12;;;;;;;16.58;9.25;;;;;;;;;;10205196;29;20039;-89
2023/06/24 06:22:15;;;;;;;11.43;7.65;;;;;;;;;;10204733;29;20481;-89
2023/06/24 06:39:48;;;;;;;12.48;7.32;;;;;;;;;;10522956;27;20381;-85
2023/06/24 06:44:49;;;;;;;10.65;6.40;;;;;;;;;;10522390;28;20048;-84
2023/06/24 06:49:50;;;;;;;9.88;7.00;;;;;;;;;;10522204;28;20378;-84
2023/06/24 06:54:51;;;;;;;9.38;6.38;;;;;;;;;;10521209;28;20019;-83
2023/06/24 06:59:52;;;;;;;9.48;6.68;;;;;;;;;;10518385;28;20028;-83
2023/06/24 07:04:53;;;;;;;8.65;5.95;;;;;;;;;;10521604;28;20475;-83
2023/06/24 07:09:54;;;;;;;9.80;6.60;;;;;;;;;;10521245;28;20044;-85
2023/06/24 07:14:55;;;;;;;8.82;6.18;;;;;;;;;;10520841;28;20024;-83
2023/06/24 07:19:56;;;;;;;8.93;5.78;;;;;;;;;;10505661;28;20036;-85
2023/06/24 07:24:58;;;;;;;8.05;6.32;;;;;;;;;;10520234;28;20109;-84
2023/06/24 07:29:59;;;;;;;11.40;6.80;;;;;;;;;;10520126;28;20028;-83
2023/06/24 07:35:00;;;;;;;9.95;5.75;;;;;;;;;;10519785;28;20047;-83
2023/06/24 07:40:01;;;;;;;10.60;6.10;;;;;;;;;;10496204;28;20028;-83
2023/06/24 07:45:02;;;;;;;9.05;6.13;;;;;;;;;;10490949;28;20033;-83
2023/06/24 07:50:03;;;;;;;10.32;6.20;;;;;;;;;;10493017;28;20480;-83
2023/06/24 07:55:04;;;;;;;10.35;6.30;;;;;;;;;;10491760;28;20037;-82
2023/06/24 08:00:09;;;;;;;9.70;6.82;;;;;;;;;;10491233;28;20032;-81
2023/06/24 08:05:10;;;;;;;10.57;7.28;;;;;;;;;;10491138;28;20916;-85
2023/06/24 08:10:11;;;;;;;10.63;7.53;;;;;;;;;;10490890;28;20641;-82
2023/06/24 08:15:12;;;;;;;9.85;7.63;;;;;;;;;;10490908;28;20016;-82
2023/06/24 08:20:13;;;;;;;11.55;7.68;;;;;;;;;;10491487;28;20807;-84
2023/06/24 08:25:15;;;;;;;13.40;7.50;;;;;;;;;;10490157;28;20115;-82
2023/06/24 08:30:16;;;;;;;12.13;7.15;;;;;;;;;;10490868;28;20364;-84
2023/06/24 08:35:17;;;;;;;10.50;6.53;;;;;;;;;;10442175;28;20045;-81
2023/06/24 08:40:18;;;;;;;9.95;7.38;;;;;;;;;;10491144;28;20525;-82
2023/06/24 08:45:19;;;;;;;8.80;6.25;;;;;;;;;;10475961;28;20035;-84
2023/06/24 08:50:20;;;;;;;10.00;6.72;;;;;;;;;;10488349;28;20598;-83
2023/06/24 08:55:23;;;;;;;9.18;6.85;;;;;;;;;;10489872;28;20538;-82
2023/06/24 09:00:25;;;;;;;10.25;6.35;;;;;;;;;;10489040;28;20472;-84
2023/06/24 09:05:26;;;;;;;12.40;7.20;;;;;;;;;;10461316;28;20036;-83
2023/06/24 09:10:33;;;;;;;8.88;6.28;;;;;;;;;;10487640;28;20032;-83
2023/06/24 09:15:35;;;;;;;8.30;5.97;;;;;;;;;;10488571;28;20519;-83
2023/06/24 09:20:39;;;;;;;8.27;5.82;;;;;;;;;;10486732;28;20487;-82
2023/06/24 09:25:40;;;;;;;8.93;6.30;;;;;;;;;;10488405;28;20032;-82
2023/06/24 09:30:41;;;;;;;8.13;6.43;;;;;;;;;;10487963;28;20029;-83
2023/06/24 09:35:42;;;;;;;8.25;5.88;;;;;;;;;;10487968;28;20121;-81
2023/06/24 09:40:46;;;;;;;8.90;6.32;;;;;;;;;;10487860;28;20029;-83
2023/06/24 09:45:49;;;;;;;10.05;6.57;;;;;;;;;;10486932;28;20501;-86
2023/06/24 09:50:50;;;;;;;9.32;7.05;;;;;;;;;;10487083;28;20040;-85
2023/06/24 09:55:52;;;;;;;9.50;6.75;;;;;;;;;;10473433;28;20025;-82
2023/06/24 10:00:55;;;;;;;11.63;7.72;;;;;;;;;;10483158;28;20028;-82
2023/06/24 10:05:56;;;;;;;9.43;6.97;;;;;;;;;;10476684;28;20028;-85
2023/06/24 10:10:57;;;;;;;10.57;7.53;;;;;;;;;;10486432;28;20074;-82
2023/06/24 10:15:58;;;;;;;9.57;7.10;;;;;;;;;;10487636;28;20108;-83
2023/06/24 10:20:59;;;;;;;8.68;7.60;;;;;;;;;;10486784;28;20024;-83
2023/06/24 10:26:00;;;;;;;9.65;6.95;;;;;;;;;;10486997;28;20041;-82
2023/06/24 10:31:01;;;;;;;8.18;6.60;;;;;;;;;;10486871;28;20021;-82
2023/06/24 10:36:02;;;;;;;9.50;7.32;;;;;;;;;;10485685;28;20419;-82
2023/06/24 10:41:15;;;;;;;11.80;7.40;;;;;;;;;;10485910;28;20071;-81
2023/06/24 10:46:16;;;;;;;10.70;6.80;;;;;;;;;;10486887;28;20052;-82
2023/06/24 10:51:17;;;;;;;11.65;6.93;;;;;;;;;;10439559;28;20024;-85
2023/06/24 10:56:18;;;;;;;10.00;6.43;;;;;;;;;;10449431;28;20065;-84
2023/06/24 11:01:19;;;;;;;13.57;7.13;;;;;;;;;;10444320;28;20025;-83
2023/06/24 11:06:20;;;;;;;11.30;7.45;;;;;;;;;;10444554;28;20400;-82
2023/06/24 11:11:21;;;;;;;8.07;6.70;;;;;;;;;;10444708;28;20036;-83
2023/06/24 11:16:22;;;;;;;9.30;6.43;;;;;;;;;;10466296;28;20034;-82
2023/06/24 11:21:28;;;;;;;10.20;7.07;;;;;;;;;;10493344;28;20025;-83
2023/06/24 11:26:30;;;;;;;11.60;6.95;;;;;;;;;;10483399;28;20439;-83
2023/06/24 11:31:32;;;;;;;9.20;6.70;;;;;;;;;;10472179;28;20491;-84
2023/06/24 11:36:35;;;;;;;8.05;6.07;;;;;;;;;;10492399;28;20053;-81
2023/06/24 11:41:39;;;;;;;11.18;6.88;;;;;;;;;;10483129;28;20021;-81
2023/06/24 11:46:41;;;;;;;9.65;6.90;;;;;;;;;;10487795;28;20087;-82
2023/06/24 11:51:52;;;;;;;9.15;5.85;;;;;;;;;;10476644;28;20139;-82
2023/06/24 11:56:54;;;;;;;8.52;5.95;;;;;;;;;;10492309;28;20511;-82
2023/06/24 12:01:56;;;;;;;8.82;5.90;;;;;;;;;;10474459;28;20040;-85
2023/06/24 12:06:57;;;;;;;8.60;6.85;;;;;;;;;;10451707;28;20041;-83
2023/06/24 12:11:58;;;;;;;8.25;5.35;;;;;;;;;;10474013;28;20610;-82
2023/06/24 12:16:59;;;;;;;9.85;5.15;;;;;;;;;;10450039;28;20049;-85
2023/06/24 12:22:00;;;;;;;6.30;5.07;;;;;;;;;;10452138;28;20067;-83
2023/06/24 12:27:01;;;;;;;7.65;4.75;;;;;;;;;;10489222;28;20104;-85
2023/06/24 12:32:02;;;;;;;5.35;4.40;;;;;;;;;;10490744;28;20431;-84
2023/06/24 12:37:03;;;;;;;6.63;5.13;;;;;;;;;;10490255;28;20056;-83
2023/06/24 12:42:05;;;;;;;7.10;4.57;;;;;;;;;;10489942;28;20573;-83
2023/06/24 12:47:07;;;;;;;8.70;5.10;;;;;;;;;;10490492;28;20097;-83
2023/06/24 12:52:08;;;;;;;5.63;4.65;;;;;;;;;;10490126;28;20029;-83
2023/06/24 12:57:09;;;;;;;7.65;5.70;;;;;;;;;;10490105;28;20495;-83
2023/06/24 18:57:48;;;;;;;20.33;7.60;;;;;;;;;;10525958;28;20020;-80
2023/06/24 19:02:49;;;;;;;13.25;7.03;;;;;;;;;;10525805;28;20031;-80
2023/06/24 19:07:50;;;;;;;11.95;6.97;;;;;;;;;;10526179;28;20036;-80
2023/06/24 19:12:54;;;;;;;11.07;7.40;;;;;;;;;;10526667;28;20028;-80
2023/06/24 19:18:02;;;;;;;8.57;6.25;;;;;;;;;;10526073;28;20032;-81
2023/06/24 19:23:03;;;;;;;15.48;8.40;;;;;;;;;;10524294;28;20032;-80
2023/06/24 19:28:04;;;;;;;12.85;8.13;;;;;;;;;;10525652;28;20042;-81
2023/06/24 19:33:05;;;;;;;13.32;7.65;;;;;;;;;;10529536;28;20493;-82
2023/06/24 19:38:06;;;;;;;13.57;8.45;;;;;;;;;;10544526;28;20039;-81
2023/06/24 19:43:07;;;;;;;13.48;8.13;;;;;;;;;;10534542;28;20070;-82
2023/06/24 19:48:08;;;;;;;12.27;7.90;;;;;;;;;;10505448;22;20495;-81
2023/06/24 19:53:09;;;;;;;16.13;9.50;;;;;;;;;;10498494;28;20028;-82
2023/06/24 19:58:10;;;;;;;16.20;10.13;;;;;;;;;;10499821;28;20471;-81
2023/06/24 20:03:11;;;;;;;17.08;9.95;;;;;;;;;;10512922;28;20035;-81
2023/06/24 20:08:12;;;;;;;19.83;12.25;;;;;;;;;;10518884;28;20044;-81
2023/06/24 20:13:13;;;;;;;18.30;12.32;;;;;;;;;;10507293;28;20028;-82
2023/06/24 20:18:18;;;;;;;17.10;11.35;;;;;;;;;;10499458;28;20061;-81
2023/06/24 20:23:19;;;;;;;16.80;10.80;;;;;;;;;;10513968;28;20514;-81
2023/06/24 20:28:20;;;;;;;19.55;12.18;;;;;;;;;;10495095;28;20036;-82
2023/06/24 20:33:23;;;;;;;21.60;13.77;;;;;;;;;;10498382;28;20036;-81
2023/06/24 20:38:25;;;;;;;19.73;13.32;;;;;;;;;;10502817;28;20086;-81
2023/06/24 20:43:26;;;;;;;20.88;13.32;;;;;;;;;;10499490;28;20028;-82
2023/06/24 20:48:27;;;;;;;19.83;13.05;;;;;;;;;;10498261;28;20075;-81
2023/06/24 20:53:28;;;;;;;24.58;14.63;;;;;;;;;;10493136;28;20760;-80
2023/06/24 20:58:29;;;;;;;34.00;21.95;;;;;;;;;;10495998;28;20114;-82
2023/06/24 21:03:30;;;;;;;53.97;35.22;;;;;;;;;;10496007;28;20127;-82
2023/06/24 21:08:31;;;;;;;48.33;31.25;;;;;;;;;;10504778;28;20036;-81
2023/06/24 21:13:32;;;;;;;26.13;17.33;;;;;;;;;;10494986;28;20024;-81
2023/06/24 21:18:33;;;;;;;24.02;15.30;;;;;;;;;;10489889;28;20028;-81
2023/06/24 21:23:34;;;;;;;24.42;15.90;;;;;;;;;;10505340;28;20044;-81
2023/06/24 21:28:35;;;;;;;22.80;13.60;;;;;;;;;;10499863;28;20066;-81
2023/06/24 21:33:37;;;;;;;21.00;15.20;;;;;;;;;;10486124;28;20594;-81
2023/06/24 21:38:38;;;;;;;27.55;18.63;;;;;;;;;;10505110;28;20124;-81
2023/06/24 21:43:39;;;;;;;23.75;16.10;;;;;;;;;;10496398;28;20045;-81
2023/06/24 21:48:40;;;;;;;24.73;15.55;;;;;;;;;;10487559;28;20491;-81
2023/06/24 21:53:41;;;;;;;29.60;17.23;;;;;;;;;;10490979;28;20075;-82
2023/06/24 21:58:42;;;;;;;28.17;19.50;;;;;;;;;;10517015;22;20069;-82
2023/06/24 22:03:43;;;;;;;41.88;25.83;;;;;;;;;;10521362;28;20517;-81
2023/06/24 22:08:44;;;;;;;48.63;28.33;;;;;;;;;;10523167;28;20125;-81
2023/06/24 22:13:45;;;;;;;48.70;30.05;;;;;;;;;;10510525;28;20051;-81
2023/06/24 22:18:46;;;;;;;50.00;29.85;;;;;;;;;;10512566;28;20046;-82
2023/06/24 22:23:47;;;;;;;43.85;28.42;;;;;;;;;;10509160;28;20071;-81
2023/06/24 22:28:49;;;;;;;56.42;32.85;;;;;;;;;;10509352;28;20044;-82
2023/06/24 22:33:50;;;;;;;51.67;31.75;;;;;;;;;;10487049;28;20143;-82
2023/06/24 22:38:51;;;;;;;47.13;30.27;;;;;;;;;;10488700;28;20393;-81
2023/06/24 22:43:52;;;;;;;42.42;27.60;;;;;;;;;;10494064;28;20035;-81
2023/06/24 22:48:53;;;;;;;50.80;30.35;;;;;;;;;;10482647;28;20036;-81
2023/06/24 22:53:54;;;;;;;52.55;32.58;;;;;;;;;;10491483;28;20444;-80
2023/06/24 22:58:55;;;;;;;62.05;34.67;;;;;;;;;;10491553;28;20091;-82
2023/06/24 23:03:56;;;;;;;48.15;30.73;;;;;;;;;;10482005;28;20066;-80
2023/06/24 23:08:57;;;;;;;49.88;28.67;;;;;;;;;;10503686;28;20035;-81
2023/06/24 23:13:59;;;;;;;47.85;30.05;;;;;;;;;;10494281;28;20098;-81
2023/06/24 23:19:00;;;;;;;43.53;28.13;;;;;;;;;;10493300;28;20391;-81
2023/06/24 23:24:01;;;;;;;57.50;31.88;;;;;;;;;;10496991;28;20032;-80
2023/06/24 23:29:06;;;;;;;51.65;30.73;;;;;;;;;;10509695;28;20028;-81
2023/06/24 23:34:07;;;;;;;55.67;32.50;;;;;;;;;;10506531;28;20039;-81
2023/06/24 23:39:08;;;;;;;57.50;31.42;;;;;;;;;;10497465;28;20570;-80
2023/06/24 23:44:10;;;;;;;63.72;33.70;;;;;;;;;;10500925;28;20031;-81
2023/06/24 23:49:11;;;;;;;44.78;28.05;;;;;;;;;;10500487;28;20036;-82
2023/06/24 23:54:12;;;;;;;53.70;29.30;;;;;;;;;;10500359;28;20037;-81
2023/06/24 23:59:13;;;;;;;67.07;32.58;;;;;;;;;;10494198;28;20061;-81
